Time;durP1;ratioP1;P1;durP2;ratioP2;P2;SDS_P1;SDS_P2;PMS_P1;PMS_P2;Temp;Humidity;BMP_temperature;BMP_pressure;BME280_temperature;BME280_humidity;BME280_pressure;Samples;Min_cycle;Max_cycle;Signal;HPM_P1;HPM_P2
2023/12/30 00:01:23;;;;;;;4.50;2.10;;;8.20;29.50;;;;;;5041323;28;20485;-66
2023/12/30 00:03:50;;;;;;;5.70;2.80;;;8.20;29.50;;;;;;5044194;28;20482;-67
2023/12/30 00:06:18;;;;;;;6.60;2.40;;;8.20;29.70;;;;;;5047023;28;20481;-67
2023/12/30 00:08:45;;;;;;;5.47;2.63;;;8.20;29.60;;;;;;5045138;28;21017;-67
2023/12/30 00:11:14;;;;;;;4.77;2.40;;;8.10;29.70;;;;;;5054772;28;20461;-66
2023/12/30 00:13:41;;;;;;;5.30;2.10;;;8.20;29.70;;;;;;5074956;28;20469;-66
2023/12/30 00:16:08;;;;;;;6.33;2.17;;;8.10;29.60;;;;;;5051156;28;20443;-67
2023/12/30 00:18:36;;;;;;;4.50;2.10;;;8.10;29.60;;;;;;5042476;28;21177;-67
2023/12/30 00:21:03;;;;;;;6.77;2.70;;;8.10;29.60;;;;;;5045341;28;20450;-66
2023/12/30 00:23:30;;;;;;;4.67;2.00;;;8.10;29.40;;;;;;5043940;28;20471;-66
2023/12/30 00:25:56;;;;;;;4.60;2.30;;;8.10;29.40;;;;;;5049850;28;20486;-66
2023/12/30 00:28:24;;;;;;;4.47;1.90;;;8.10;29.30;;;;;;5047918;28;20989;-68
2023/12/30 00:30:51;;;;;;;5.40;2.40;;;8.00;29.30;;;;;;5044214;28;20474;-66
2023/12/30 00:33:18;;;;;;;4.53;2.37;;;8.10;29.30;;;;;;5048002;28;20488;-66
2023/12/30 00:35:44;;;;;;;4.40;2.13;;;8.00;29.10;;;;;;5045700;28;20958;-66
2023/12/30 00:38:11;;;;;;;6.20;2.77;;;8.00;29.20;;;;;;5052733;28;20456;-66
2023/12/30 00:40:38;;;;;;;5.20;2.77;;;8.00;29.20;;;;;;5051698;28;20442;-66
2023/12/30 00:43:05;;;;;;;5.33;2.90;;;8.00;29.30;;;;;;5050767;28;20858;-66
2023/12/30 00:45:33;;;;;;;5.80;3.23;;;8.00;29.30;;;;;;5050917;28;20450;-68
2023/12/30 00:47:59;;;;;;;5.07;2.50;;;8.00;29.20;;;;;;5051670;28;20480;-66
2023/12/30 00:50:26;;;;;;;4.53;2.43;;;8.00;29.30;;;;;;5054034;28;20457;-66
2023/12/30 00:52:53;;;;;;;5.90;3.30;;;8.00;29.30;;;;;;5049997;28;21318;-66
2023/12/30 00:55:20;;;;;;;4.60;2.40;;;8.00;29.30;;;;;;5048482;28;20820;-66
2023/12/30 00:57:46;;;;;;;5.87;2.70;;;7.90;29.30;;;;;;5049041;28;20533;-67
2023/12/30 01:00:14;;;;;;;4.40;2.00;;;7.90;29.30;;;;;;5048888;28;20954;-66
2023/12/30 01:02:42;;;;;;;5.40;2.37;;;7.90;29.30;;;;;;5048072;28;20462;-66
2023/12/30 01:05:09;;;;;;;5.63;2.67;;;7.90;29.20;;;;;;5050193;28;20965;-66
2023/12/30 01:07:36;;;;;;;5.87;2.63;;;7.90;29.30;;;;;;5051229;28;20513;-66
2023/12/30 01:10:04;;;;;;;4.97;2.47;;;7.90;29.20;;;;;;5047566;28;20473;-67
2023/12/30 01:12:30;;;;;;;5.03;2.60;;;7.90;29.20;;;;;;5047791;28;20478;-66
2023/12/30 01:14:57;;;;;;;5.90;2.40;;;7.80;29.10;;;;;;5052031;28;20473;-67
2023/12/30 01:17:24;;;;;;;6.40;3.10;;;7.80;29.10;;;;;;5052174;28;20452;-67
2023/12/30 01:19:52;;;;;;;7.40;2.50;;;7.80;29.00;;;;;;5052360;28;20942;-67
2023/12/30 01:22:19;;;;;;;5.27;2.30;;;7.70;29.00;;;;;;5046990;28;20973;-66
2023/12/30 01:24:45;;;;;;;4.57;2.30;;;7.70;28.90;;;;;;5044615;28;20473;-66
2023/12/30 01:27:12;;;;;;;5.90;2.30;;;7.70;28.90;;;;;;5050368;28;20482;-66
2023/12/30 01:29:39;;;;;;;5.50;2.70;;;7.70;28.90;;;;;;5050500;28;20458;-66
2023/12/30 01:32:06;;;;;;;4.80;2.40;;;7.60;28.90;;;;;;5050723;28;20469;-66
2023/12/30 01:34:33;;;;;;;5.17;2.17;;;7.60;28.90;;;;;;5046244;28;20479;-67
2023/12/30 01:37:01;;;;;;;5.67;2.60;;;7.60;28.80;;;;;;5049171;28;20461;-67
2023/12/30 01:39:28;;;;;;;6.20;2.67;;;7.60;28.80;;;;;;5048057;28;20454;-66
2023/12/30 01:41:55;;;;;;;5.93;2.87;;;7.60;28.70;;;;;;5046035;28;20813;-66
2023/12/30 01:44:21;;;;;;;4.87;2.33;;;7.60;28.70;;;;;;5045895;28;20475;-67
2023/12/30 01:46:49;;;;;;;5.40;2.30;;;7.60;28.80;;;;;;5084657;23;20483;-68
2023/12/30 01:49:16;;;;;;;5.10;3.00;;;7.60;28.70;;;;;;5085712;28;20460;-68
2023/12/30 01:51:43;;;;;;;4.50;1.70;;;7.60;28.80;;;;;;5088671;28;20460;-68
2023/12/30 01:54:11;;;;;;;7.27;2.67;;;7.60;28.80;;;;;;5086918;28;20487;-68
2023/12/30 01:56:38;;;;;;;5.40;2.63;;;7.60;28.80;;;;;;5085867;28;20459;-68
2023/12/30 01:59:06;;;;;;;4.40;2.20;;;7.60;28.60;;;;;;5082763;28;20460;-68
2023/12/30 02:01:32;;;;;;;4.77;2.03;;;7.60;28.60;;;;;;5080729;28;20476;-68
2023/12/30 02:03:59;;;;;;;5.67;2.50;;;7.60;28.60;;;;;;5080358;28;20481;-68
2023/12/30 02:06:25;;;;;;;4.60;2.23;;;7.60;28.60;;;;;;5078933;28;20484;-68
2023/12/30 02:08:52;;;;;;;4.20;2.10;;;7.60;28.30;;;;;;5081128;28;20456;-67
2023/12/30 02:11:20;;;;;;;5.53;2.13;;;7.60;28.50;;;;;;5083392;28;20199;-67
2023/12/30 02:13:47;;;;;;;5.77;2.47;;;7.60;28.50;;;;;;5084546;28;20480;-67
2023/12/30 02:16:14;;;;;;;5.83;2.50;;;7.60;28.30;;;;;;5079883;28;20464;-67
2023/12/30 02:18:41;;;;;;;7.00;2.20;;;7.60;28.20;;;;;;5084781;28;20479;-67
2023/12/30 02:21:08;;;;;;;4.97;2.30;;;7.60;28.00;;;;;;5084286;28;20461;-68
2023/12/30 02:23:36;;;;;;;6.03;2.10;;;7.50;28.00;;;;;;5079155;28;20489;-67
2023/12/30 02:26:02;;;;;;;4.30;2.03;;;7.50;27.90;;;;;;5080647;28;20456;-67
2023/12/30 02:28:29;;;;;;;4.30;1.83;;;7.50;27.80;;;;;;5074976;28;20480;-67
2023/12/30 02:30:56;;;;;;;5.40;2.20;;;7.50;27.50;;;;;;5075161;28;20479;-68
2023/12/30 02:33:23;;;;;;;4.43;2.20;;;7.50;27.50;;;;;;5082095;28;20851;-68
2023/12/30 02:35:49;;;;;;;4.93;1.90;;;7.50;27.30;;;;;;5074989;28;20453;-67
2023/12/30 02:38:16;;;;;;;4.20;1.90;;;7.60;27.20;;;;;;5079949;28;20460;-68
2023/12/30 02:40:45;;;;;;;4.57;1.70;;;7.60;26.90;;;;;;5079924;28;20944;-68
2023/12/30 02:43:12;;;;;;;6.53;2.30;;;7.60;26.70;;;;;;5079480;28;20488;-67
2023/12/30 02:45:38;;;;;;;4.80;1.80;;;7.60;26.40;;;;;;5085631;28;20944;-68
2023/12/30 02:48:06;;;;;;;6.27;2.20;;;7.60;26.30;;;;;;5073536;28;20477;-67
2023/12/30 02:50:33;;;;;;;4.80;1.30;;;7.60;26.10;;;;;;5082170;28;20471;-67
2023/12/30 02:53:00;;;;;;;4.63;1.77;;;7.60;25.90;;;;;;5083333;28;20464;-67
2023/12/30 02:55:26;;;;;;;3.97;1.80;;;7.60;25.40;;;;;;5076452;28;20469;-67
2023/12/30 02:57:54;;;;;;;5.00;1.50;;;7.60;25.10;;;;;;5077318;28;20452;-68
2023/12/30 03:00:21;;;;;;;3.93;1.30;;;7.60;25.10;;;;;;5076024;28;20464;-67
2023/12/30 03:02:48;;;;;;;6.40;1.30;;;7.50;24.80;;;;;;5082749;28;20471;-68
2023/12/30 03:05:15;;;;;;;4.40;1.40;;;7.60;24.50;;;;;;5081070;28;20460;-68
2023/12/30 03:07:41;;;;;;;4.23;1.53;;;7.60;24.20;;;;;;5074795;28;20487;-68
2023/12/30 03:10:09;;;;;;;3.80;1.23;;;7.60;24.10;;;;;;5079177;28;20921;-67
2023/12/30 03:12:36;;;;;;;3.60;1.20;;;7.60;23.60;;;;;;5078767;28;20563;-67
2023/12/30 03:15:04;;;;;;;4.83;1.20;;;7.50;24.00;;;;;;5078300;28;20479;-68
2023/12/30 03:17:31;;;;;;;4.37;1.60;;;7.50;22.90;;;;;;5078547;28;20444;-68
2023/12/30 03:19:58;;;;;;;6.27;1.33;;;7.60;22.60;;;;;;5080595;28;20464;-68
2023/12/30 03:22:26;;;;;;;5.00;1.43;;;7.60;22.40;;;;;;5077961;28;20460;-67
2023/12/30 03:24:52;;;;;;;5.13;1.23;;;7.60;22.00;;;;;;5085510;28;21024;-67
2023/12/30 03:27:19;;;;;;;3.77;1.13;;;7.60;22.00;;;;;;5081118;28;20487;-68
2023/12/30 03:29:46;;;;;;;5.67;1.23;;;7.60;21.70;;;;;;5081754;28;20456;-68
2023/12/30 03:32:14;;;;;;;3.63;1.27;;;7.60;21.80;;;;;;5079120;28;20503;-68
2023/12/30 03:34:40;;;;;;;4.40;1.23;;;7.60;21.50;;;;;;5082278;28;20487;-67
2023/12/30 03:37:07;;;;;;;8.80;1.67;;;7.60;21.40;;;;;;5075696;28;20460;-67
2023/12/30 03:39:34;;;;;;;6.07;1.10;;;7.60;21.30;;;;;;5084721;28;20482;-67
2023/12/30 03:42:00;;;;;;;3.33;0.97;;;7.60;21.00;;;;;;5076686;28;20465;-67
2023/12/30 03:44:27;;;;;;;5.20;1.20;;;7.60;21.50;;;;;;5079315;28;20476;-67
2023/12/30 03:46:54;;;;;;;3.70;1.10;;;7.60;21.00;;;;;;5082048;28;20728;-67
2023/12/30 03:49:23;;;;;;;3.50;1.00;;;7.60;21.00;;;;;;5080115;28;20460;-68
2023/12/30 03:51:50;;;;;;;7.40;1.60;;;7.60;20.90;;;;;;5075701;28;20457;-68
2023/12/30 03:54:17;;;;;;;4.37;1.33;;;7.60;20.90;;;;;;5076208;28;20487;-68
2023/12/30 03:56:43;;;;;;;4.60;1.20;;;7.60;20.90;;;;;;5077116;28;20457;-68
2023/12/30 03:59:10;;;;;;;4.03;1.30;;;7.60;20.80;;;;;;5080920;28;20452;-68
2023/12/30 04:01:41;;;;;;;4.57;1.27;;;7.60;20.80;;;;;;5077439;28;20479;-68
2023/12/30 04:04:07;;;;;;;4.80;1.43;;;7.60;20.80;;;;;;5081206;28;20476;-68
2023/12/30 04:06:35;;;;;;;7.67;1.77;;;7.70;20.50;;;;;;5081492;28;20460;-68
2023/12/30 04:09:02;;;;;;;4.30;1.27;;;7.60;20.60;;;;;;5075898;28;20480;-67
2023/12/30 04:11:29;;;;;;;3.80;1.10;;;7.70;20.50;;;;;;5078705;28;20523;-68
2023/12/30 04:13:56;;;;;;;3.63;1.53;;;7.70;20.60;;;;;;5076790;28;20484;-68
2023/12/30 04:16:23;;;;;;;4.63;1.43;;;7.70;20.60;;;;;;5073432;28;20465;-67
2023/12/30 04:18:49;;;;;;;4.17;1.30;;;7.60;20.50;;;;;;5078268;28;20449;-67
2023/12/30 04:21:16;;;;;;;4.10;1.50;;;7.60;20.60;;;;;;5078190;28;20460;-68
2023/12/30 04:23:44;;;;;;;3.70;1.27;;;7.60;20.70;;;;;;5084348;28;20483;-67
2023/12/30 04:26:11;;;;;;;4.30;1.57;;;7.60;20.80;;;;;;5079758;28;20464;-67
2023/12/30 04:28:38;;;;;;;4.97;1.73;;;7.60;20.80;;;;;;5077581;28;20491;-67
2023/12/30 04:31:04;;;;;;;4.20;1.20;;;7.60;20.80;;;;;;5076966;28;21002;-68
2023/12/30 04:33:31;;;;;;;4.97;1.50;;;7.60;20.80;;;;;;5081058;28;20485;-67
2023/12/30 04:35:58;;;;;;;4.90;1.57;;;7.70;20.90;;;;;;5076314;28;20460;-67
2023/12/30 04:38:25;;;;;;;4.10;1.40;;;7.70;20.80;;;;;;5074327;28;20487;-67
2023/12/30 04:40:53;;;;;;;3.50;1.00;;;7.70;20.70;;;;;;5077188;28;20483;-67
2023/12/30 04:43:19;;;;;;;7.40;1.60;;;7.70;20.70;;;;;;5074758;28;20495;-68
2023/12/30 04:45:46;;;;;;;4.33;1.20;;;7.70;20.70;;;;;;5071977;28;20862;-68
2023/12/30 04:48:13;;;;;;;4.03;1.30;;;7.70;20.90;;;;;;5074192;28;20476;-68
2023/12/30 04:50:40;;;;;;;3.70;1.40;;;7.70;20.80;;;;;;5077444;28;20946;-68
2023/12/30 04:53:06;;;;;;;5.10;1.50;;;7.70;21.00;;;;;;5073893;28;20465;-68
2023/12/30 04:55:33;;;;;;;3.50;1.30;;;7.70;21.10;;;;;;5075952;28;20461;-68
2023/12/30 04:58:01;;;;;;;5.03;1.40;;;7.70;21.60;;;;;;5076370;28;20997;-68
2023/12/30 05:00:28;;;;;;;3.90;1.43;;;7.70;21.00;;;;;;5086757;28;20459;-68
2023/12/30 05:02:55;;;;;;;3.80;1.30;;;7.70;21.00;;;;;;5085273;28;20460;-68
2023/12/30 05:05:22;;;;;;;4.37;1.60;;;7.70;21.00;;;;;;5079355;28;20903;-67
2023/12/30 05:07:48;;;;;;;5.63;1.60;;;7.70;21.10;;;;;;5078947;28;20488;-68
2023/12/30 05:10:15;;;;;;;11.93;1.63;;;7.70;21.10;;;;;;5081761;28;20470;-68
2023/12/30 05:12:42;;;;;;;5.37;1.57;;;7.60;21.10;;;;;;5085620;28;20459;-68
2023/12/30 05:15:13;;;;;;;4.10;1.27;;;7.60;21.20;;;;;;5083030;28;20480;-68
2023/12/30 05:17:39;;;;;;;4.40;1.17;;;7.60;21.30;;;;;;5080517;28;20480;-68
2023/12/30 05:20:08;;;;;;;3.53;0.97;;;7.50;21.30;;;;;;5079350;28;20452;-68
2023/12/30 05:22:35;;;;;;;4.97;1.20;;;7.50;21.30;;;;;;5080778;28;20464;-67
2023/12/30 05:25:02;;;;;;;4.50;1.40;;;7.50;21.30;;;;;;5082053;28;20476;-68
2023/12/30 05:27:29;;;;;;;3.50;1.30;;;7.50;21.40;;;;;;5079985;28;20855;-68
2023/12/30 05:29:55;;;;;;;4.80;1.30;;;7.50;21.30;;;;;;5079812;28;20460;-68
2023/12/30 05:32:24;;;;;;;3.70;1.20;;;7.50;21.30;;;;;;5078769;28;20480;-68
2023/12/30 05:34:50;;;;;;;4.90;1.43;;;7.60;21.40;;;;;;5076727;28;20473;-67
2023/12/30 05:37:17;;;;;;;4.03;1.37;;;7.60;21.30;;;;;;5076257;28;20461;-67
2023/12/30 05:39:45;;;;;;;4.03;1.33;;;7.60;21.30;;;;;;5079203;28;20472;-67
2023/12/30 05:42:11;;;;;;;3.83;1.30;;;7.70;21.40;;;;;;5081095;28;20457;-67
2023/12/30 05:44:38;;;;;;;6.00;1.50;;;7.70;21.40;;;;;;5075698;28;20492;-68
2023/12/30 05:47:05;;;;;;;4.03;1.33;;;7.70;21.50;;;;;;5078585;28;20472;-68
2023/12/30 05:49:33;;;;;;;5.33;1.63;;;7.70;21.50;;;;;;5083459;28;20489;-68
2023/12/30 05:51:59;;;;;;;14.53;1.77;;;7.80;21.50;;;;;;5076899;28;20937;-68
2023/12/30 05:54:27;;;;;;;7.83;1.77;;;7.80;21.40;;;;;;5081613;28;20484;-67
2023/12/30 05:56:54;;;;;;;4.90;1.40;;;7.80;21.30;;;;;;5082210;28;21070;-68
2023/12/30 05:59:20;;;;;;;6.80;2.07;;;7.80;21.40;;;;;;5084351;28;20645;-68
2023/12/30 06:01:47;;;;;;;4.00;1.73;;;7.90;21.40;;;;;;5081924;28;20843;-68
2023/12/30 06:04:14;;;;;;;4.07;1.20;;;7.90;21.50;;;;;;5083184;28;20491;-68
2023/12/30 06:06:43;;;;;;;4.80;1.27;;;7.90;21.40;;;;;;5082033;28;21141;-68
2023/12/30 06:09:10;;;;;;;5.00;1.93;;;7.80;22.00;;;;;;5083839;28;20476;-68
2023/12/30 06:11:37;;;;;;;5.33;1.53;;;7.80;21.20;;;;;;5082158;28;20464;-68
2023/12/30 06:14:04;;;;;;;4.07;1.07;;;7.80;21.30;;;;;;5084434;28;20476;-68
2023/12/30 06:16:31;;;;;;;3.43;1.03;;;7.70;21.30;;;;;;5081743;28;20461;-68
2023/12/30 06:18:58;;;;;;;5.83;1.70;;;7.70;21.50;;;;;;5083985;28;20460;-68
2023/12/30 06:21:24;;;;;;;4.53;1.47;;;7.70;21.60;;;;;;5080975;28;20479;-68
2023/12/30 06:23:52;;;;;;;3.53;1.00;;;7.70;21.60;;;;;;5078889;28;20472;-68
2023/12/30 06:26:19;;;;;;;8.73;2.17;;;7.60;21.70;;;;;;5084663;28;20817;-68
2023/12/30 06:28:46;;;;;;;4.40;1.53;;;7.60;21.80;;;;;;5076533;28;20477;-68
2023/12/30 06:31:13;;;;;;;4.30;1.90;;;7.60;21.90;;;;;;5073942;28;20492;-68
2023/12/30 06:33:40;;;;;;;3.90;1.40;;;7.70;22.10;;;;;;5080844;28;20496;-67
2023/12/30 06:36:07;;;;;;;5.13;1.50;;;7.70;22.20;;;;;;5081125;28;20788;-67
2023/12/30 06:38:35;;;;;;;5.80;1.67;;;7.70;22.30;;;;;;5078147;28;20953;-67
2023/12/30 06:41:06;;;;;;;5.57;1.90;;;7.70;22.40;;;;;;5080015;28;21036;-68
2023/12/30 06:43:33;;;;;;;4.70;1.40;;;7.70;22.40;;;;;;5081910;28;20491;-68
2023/12/30 06:46:03;;;;;;;5.27;1.67;;;7.70;22.50;;;;;;5082821;28;20461;-68
2023/12/30 06:48:30;;;;;;;4.57;1.43;;;7.70;22.40;;;;;;5080010;28;20821;-68
2023/12/30 06:50:57;;;;;;;4.53;1.50;;;7.70;22.50;;;;;;5074346;28;20461;-68
2023/12/30 06:53:23;;;;;;;3.60;1.40;;;7.70;22.70;;;;;;5080385;28;20520;-68
2023/12/30 06:55:50;;;;;;;4.67;1.83;;;7.60;22.70;;;;;;5078498;28;20449;-68
2023/12/30 06:58:18;;;;;;;3.90;1.40;;;7.60;22.70;;;;;;5081418;28;20457;-67
2023/12/30 07:00:45;;;;;;;5.93;2.03;;;7.60;22.90;;;;;;5084154;28;20477;-67
2023/12/30 07:03:12;;;;;;;5.73;2.03;;;7.60;23.00;;;;;;5083184;28;20483;-68
2023/12/30 07:05:38;;;;;;;6.20;1.83;;;7.60;23.20;;;;;;5081861;28;20452;-67
2023/12/30 07:08:05;;;;;;;4.90;2.17;;;7.70;23.20;;;;;;5075271;28;20476;-68
2023/12/30 07:10:32;;;;;;;5.40;2.10;;;7.70;23.20;;;;;;5075923;28;20945;-68
2023/12/30 07:12:59;;;;;;;5.13;2.07;;;7.60;23.20;;;;;;5078025;28;20459;-68
2023/12/30 07:15:27;;;;;;;4.87;2.27;;;7.60;23.30;;;;;;5082441;28;20483;-68
2023/12/30 07:17:54;;;;;;;5.63;1.90;;;7.60;23.30;;;;;;5077414;28;20460;-67
2023/12/30 07:20:21;;;;;;;4.50;2.13;;;7.60;23.30;;;;;;5077762;28;20563;-67
2023/12/30 07:22:47;;;;;;;9.17;2.20;;;7.60;23.40;;;;;;5080044;28;20465;-67
2023/12/30 07:25:14;;;;;;;6.40;2.47;;;7.60;23.40;;;;;;5080077;28;20471;-67
2023/12/30 07:27:41;;;;;;;7.37;3.17;;;7.70;23.50;;;;;;5076975;28;20468;-66
2023/12/30 07:30:08;;;;;;;6.63;3.60;;;7.70;23.60;;;;;;5079547;28;20480;-70
2023/12/30 07:32:37;;;;;;;5.53;3.07;;;7.70;23.70;;;;;;5080184;28;20477;-70
2023/12/30 07:35:05;;;;;;;6.30;2.73;;;7.70;24.10;;;;;;5087573;28;20571;-67
2023/12/30 07:37:32;;;;;;;6.23;3.30;;;7.80;24.20;;;;;;5080620;23;20466;-69
2023/12/30 07:39:59;;;;;;;7.23;3.60;;;7.80;24.10;;;;;;5051251;23;20783;-62
2023/12/30 07:42:26;;;;;;;8.57;3.23;;;7.90;24.10;;;;;;5080466;23;20500;-70
2023/12/30 07:44:54;;;;;;;4.77;2.50;;;7.90;24.20;;;;;;5087076;28;20464;-69
2023/12/30 07:47:21;;;;;;;7.17;3.37;;;7.90;24.20;;;;;;5085896;28;20880;-67
2023/12/30 07:49:49;;;;;;;7.07;2.80;;;7.90;24.10;;;;;;5086325;28;20661;-73
2023/12/30 07:52:16;;;;;;;7.43;2.97;;;8.00;24.10;;;;;;5083972;28;20460;-71
2023/12/30 07:54:43;;;;;;;8.90;2.90;;;8.00;24.00;;;;;;5083115;28;20494;-75
2023/12/30 07:57:09;;;;;;;4.77;2.63;;;8.10;24.00;;;;;;5086610;22;20477;-67
2023/12/30 07:59:36;;;;;;;6.47;3.50;;;8.10;23.70;;;;;;5058364;28;20466;-68
2023/12/30 08:02:04;;;;;;;6.40;2.63;;;8.20;23.50;;;;;;5065655;28;21071;-68
2023/12/30 08:04:30;;;;;;;5.27;2.77;;;8.30;23.30;;;;;;5074906;28;20482;-68
2023/12/30 08:06:58;;;;;;;5.00;2.60;;;8.40;23.10;;;;;;5072321;28;20465;-68
2023/12/30 08:09:25;;;;;;;5.90;2.60;;;8.50;22.80;;;;;;5059327;28;20832;-68
2023/12/30 08:11:52;;;;;;;7.27;2.90;;;8.60;22.50;;;;;;5070027;28;20461;-67
2023/12/30 08:14:19;;;;;;;6.17;2.30;;;8.70;22.10;;;;;;5069241;28;20960;-67
2023/12/30 08:16:45;;;;;;;6.70;2.70;;;8.80;21.80;;;;;;5068477;28;20465;-68
2023/12/30 08:19:12;;;;;;;7.03;2.97;;;8.90;21.50;;;;;;5069162;28;20457;-67
2023/12/30 08:21:39;;;;;;;5.33;2.77;;;9.10;20.90;;;;;;5065752;28;20538;-67
2023/12/30 08:24:07;;;;;;;8.23;3.50;;;9.10;20.50;;;;;;5069054;28;20469;-67
2023/12/30 08:26:34;;;;;;;7.23;4.30;;;9.30;20.70;;;;;;5067172;28;20460;-69
2023/12/30 08:29:01;;;;;;;5.60;3.03;;;10.00;19.90;;;;;;5075432;28;20481;-67
2023/12/30 08:31:28;;;;;;;6.73;3.43;;;11.10;18.40;;;;;;5067350;28;20492;-67
2023/12/30 08:33:55;;;;;;;6.93;3.83;;;12.10;16.10;;;;;;5074299;28;20876;-66
2023/12/30 08:36:22;;;;;;;6.03;3.13;;;12.70;14.00;;;;;;5072984;28;20472;-66
2023/12/30 08:38:49;;;;;;;6.47;2.83;;;12.60;12.70;;;;;;5076301;28;20460;-66
2023/12/30 08:41:21;;;;;;;4.80;2.90;;;12.30;13.00;;;;;;5073079;28;20480;-67
2023/12/30 08:43:49;;;;;;;5.67;3.33;;;12.10;13.10;;;;;;5068333;28;20469;-68
2023/12/30 08:46:15;;;;;;;7.13;3.17;;;11.90;13.10;;;;;;5068790;28;20558;-69
2023/12/30 08:48:43;;;;;;;8.20;3.60;;;11.70;13.10;;;;;;5073455;28;20477;-69
2023/12/30 08:51:13;;;;;;;7.17;3.77;;;11.50;13.30;;;;;;5061809;28;20485;-69
2023/12/30 08:53:39;;;;;;;8.07;3.70;;;11.30;13.70;;;;;;5067135;28;20464;-68
2023/12/30 08:56:07;;;;;;;9.07;3.30;;;11.10;14.10;;;;;;5077331;23;20476;-68
2023/12/30 08:58:35;;;;;;;6.00;3.37;;;11.00;15.10;;;;;;5054494;22;20484;-67
2023/12/30 09:01:01;;;;;;;5.17;2.83;;;11.30;16.10;;;;;;5062050;28;20480;-68
2023/12/30 09:03:28;;;;;;;6.43;3.13;;;11.80;16.10;;;;;;5065990;28;20468;-67
2023/12/30 09:05:57;;;;;;;8.17;3.43;;;12.10;15.10;;;;;;5067017;28;20609;-68
2023/12/30 09:08:24;;;;;;;5.60;3.50;;;12.20;13.50;;;;;;5057070;28;20480;-68
2023/12/30 09:10:50;;;;;;;5.40;3.17;;;12.20;12.50;;;;;;5041929;28;20466;-66
2023/12/30 09:13:17;;;;;;;6.43;3.60;;;12.10;12.20;;;;;;5046547;28;20479;-67
2023/12/30 09:15:45;;;;;;;7.30;4.17;;;12.10;12.20;;;;;;5048125;28;20469;-69
2023/12/30 09:18:12;;;;;;;7.07;3.67;;;12.10;12.40;;;;;;5050730;28;20505;-68
2023/12/30 09:20:38;;;;;;;6.40;3.87;;;12.20;12.80;;;;;;5041956;22;20526;-68
2023/12/30 09:23:05;;;;;;;5.80;3.63;;;12.50;13.30;;;;;;5031614;28;20500;-68
2023/12/30 09:25:32;;;;;;;6.93;4.00;;;13.00;12.80;;;;;;5024925;28;20842;-68
2023/12/30 09:27:58;;;;;;;7.27;3.93;;;13.70;11.30;;;;;;5030069;28;20463;-68
2023/12/30 09:30:25;;;;;;;6.57;4.00;;;14.30;9.60;;;;;;5024340;28;20475;-69
2023/12/30 09:32:53;;;;;;;5.63;3.20;;;14.90;8.70;;;;;;5026732;28;20465;-69
2023/12/30 09:35:20;;;;;;;5.73;3.20;;;15.30;7.50;;;;;;5027946;28;20467;-69
2023/12/30 09:37:46;;;;;;;6.20;3.60;;;15.40;6.80;;;;;;5032714;28;20477;-69
2023/12/30 09:40:13;;;;;;;8.10;3.90;;;15.60;6.60;;;;;;5031101;28;21343;-69
2023/12/30 09:42:44;;;;;;;7.80;4.00;;;15.70;6.00;;;;;;5033839;28;20970;-69
2023/12/30 09:45:14;;;;;;;6.70;3.13;;;15.90;5.50;;;;;;5026636;28;21077;-69
2023/12/30 09:47:41;;;;;;;6.80;3.63;;;16.00;5.20;;;;;;5029654;28;20463;-69
2023/12/30 09:50:10;;;;;;;5.73;2.90;;;16.20;4.90;;;;;;5025824;28;20478;-68
2023/12/30 09:52:37;;;;;;;5.57;3.10;;;16.40;4.30;;;;;;5029481;28;20466;-69
2023/12/30 09:55:04;;;;;;;5.67;2.47;;;16.50;3.60;;;;;;5031968;28;20863;-69
2023/12/30 09:57:31;;;;;;;6.87;2.70;;;16.70;3.30;;;;;;5035965;28;20467;-69
2023/12/30 09:59:59;;;;;;;6.97;2.87;;;16.80;2.40;;;;;;5032068;28;20479;-69
2023/12/30 10:02:25;;;;;;;5.13;2.77;;;16.90;2.20;;;;;;5029642;28;20491;-69
2023/12/30 10:04:53;;;;;;;6.73;3.50;;;17.00;1.90;;;;;;5024066;28;20463;-69
2023/12/30 10:07:21;;;;;;;5.73;2.83;;;17.10;1.90;;;;;;5023116;28;20463;-69
2023/12/30 10:09:50;;;;;;;4.67;2.80;;;17.20;1.60;;;;;;5020031;28;20492;-69
2023/12/30 10:12:17;;;;;;;4.73;2.70;;;17.30;1.60;;;;;;5029899;28;20458;-69
2023/12/30 10:14:43;;;;;;;5.07;3.07;;;17.40;1.00;;;;;;5033480;28;20469;-69
2023/12/30 10:17:10;;;;;;;5.00;2.80;;;17.50;1.00;;;;;;5030248;28;20789;-69
2023/12/30 10:19:37;;;;;;;5.70;3.23;;;17.50;1.00;;;;;;5026540;28;20486;-69
2023/12/30 10:22:04;;;;;;;4.90;3.10;;;17.60;1.00;;;;;;5026901;28;20464;-69
2023/12/30 10:24:32;;;;;;;4.80;2.33;;;17.70;1.00;;;;;;5023715;28;20455;-69
2023/12/30 10:27:04;;;;;;;5.00;2.80;;;17.80;1.00;;;;;;5021200;28;20451;-69
2023/12/30 10:29:30;;;;;;;4.93;2.43;;;17.80;1.00;;;;;;5026450;28;20490;-70
2023/12/30 10:32:03;;;;;;;4.67;2.00;;;17.80;1.00;;;;;;5022489;28;21026;-69
2023/12/30 10:34:30;;;;;;;6.73;2.87;;;18.00;1.00;;;;;;5028088;28;20459;-69
2023/12/30 10:36:57;;;;;;;5.13;2.20;;;18.00;1.00;;;;;;5028005;28;21344;-70
2023/12/30 10:39:25;;;;;;;5.20;2.27;;;18.10;1.00;;;;;;5025417;28;20475;-69
2023/12/30 10:41:53;;;;;;;4.13;2.10;;;18.10;1.00;;;;;;5022854;28;20458;-69
2023/12/30 10:44:20;;;;;;;5.33;2.10;;;18.20;1.00;;;;;;5019771;28;20467;-69
2023/12/30 10:46:49;;;;;;;5.10;2.20;;;18.30;1.00;;;;;;5024941;28;20474;-69
2023/12/30 10:49:17;;;;;;;4.00;2.00;;;18.30;1.00;;;;;;5024267;28;20586;-69
2023/12/30 10:51:48;;;;;;;3.77;1.67;;;18.30;1.00;;;;;;5026873;28;20450;-69
2023/12/30 10:54:27;;;;;;;7.77;2.50;;;18.30;1.00;;;;;;5025829;28;20458;-69
2023/12/30 10:57:02;;;;;;;4.60;1.77;;;18.30;1.00;;;;;;5021045;28;20458;-69
2023/12/30 10:59:30;;;;;;;8.60;1.80;;;18.40;1.00;;;;;;5017645;28;20544;-69
2023/12/30 11:01:57;;;;;;;5.20;2.10;;;18.40;1.00;;;;;;5024324;28;20479;-69
2023/12/30 11:04:25;;;;;;;4.53;1.90;;;18.40;1.00;;;;;;5023525;28;20459;-69
2023/12/30 11:06:54;;;;;;;5.60;1.77;;;18.40;1.00;;;;;;5022917;28;20483;-69
2023/12/30 11:09:23;;;;;;;4.37;2.10;;;18.40;1.00;;;;;;5020890;28;20510;-69
2023/12/30 11:11:51;;;;;;;5.03;1.40;;;18.40;1.00;;;;;;5015244;28;20463;-70
2023/12/30 11:14:20;;;;;;;5.53;2.10;;;18.30;1.00;;;;;;5020722;28;20494;-69
2023/12/30 11:16:50;;;;;;;3.70;1.40;;;18.30;1.00;;;;;;5017251;28;21049;-69
2023/12/30 11:19:27;;;;;;;3.40;1.30;;;18.20;1.00;;;;;;5021436;28;21074;-69
2023/12/30 11:21:55;;;;;;;3.83;1.37;;;18.10;1.00;;;;;;5021249;28;20474;-69
2023/12/30 11:24:22;;;;;;;3.93;1.53;;;18.10;1.00;;;;;;5024248;28;20495;-69
2023/12/30 11:26:52;;;;;;;4.57;1.47;;;18.00;1.00;;;;;;5022569;28;21002;-69
2023/12/30 11:29:24;;;;;;;4.40;1.20;;;17.90;1.00;;;;;;5022869;28;20567;-69
2023/12/30 11:31:52;;;;;;;9.23;2.33;;;17.80;1.00;;;;;;5022365;28;20570;-70
2023/12/30 11:34:19;;;;;;;4.83;1.63;;;17.80;1.00;;;;;;5023480;28;20462;-69
2023/12/30 11:36:46;;;;;;;4.73;1.73;;;17.80;1.00;;;;;;5022697;28;20458;-69
2023/12/30 11:39:18;;;;;;;4.97;1.50;;;17.80;1.00;;;;;;5019813;28;20487;-69
2023/12/30 11:41:45;;;;;;;4.27;1.83;;;17.80;1.00;;;;;;5014528;28;20493;-70
2023/12/30 11:44:12;;;;;;;4.90;1.40;;;17.80;1.00;;;;;;5025485;28;20469;-69
2023/12/30 11:46:42;;;;;;;3.67;1.27;;;17.80;1.00;;;;;;5026622;28;20467;-69
2023/12/30 11:49:08;;;;;;;3.90;1.43;;;17.90;1.00;;;;;;5024882;28;20509;-69
2023/12/30 11:51:35;;;;;;;3.70;1.13;;;17.90;1.00;;;;;;5025413;28;20470;-69
2023/12/30 11:54:03;;;;;;;4.40;1.30;;;17.90;1.00;;;;;;5017545;28;20471;-69
2023/12/30 11:56:31;;;;;;;4.27;1.20;;;17.80;1.00;;;;;;5027417;28;20487;-70
2023/12/30 11:58:58;;;;;;;8.33;2.33;;;17.80;1.00;;;;;;5028989;28;21016;-69
2023/12/30 12:01:24;;;;;;;3.93;1.43;;;17.90;1.00;;;;;;5026438;28;20897;-69
2023/12/30 12:03:52;;;;;;;3.50;1.37;;;17.80;1.00;;;;;;5022748;28;20467;-70
2023/12/30 12:06:19;;;;;;;3.60;0.87;;;17.90;1.00;;;;;;5023585;28;20470;-69
2023/12/30 12:08:47;;;;;;;4.17;1.30;;;17.90;1.00;;;;;;5036557;28;20470;-69
2023/12/30 12:11:14;;;;;;;5.43;1.67;;;17.90;1.00;;;;;;5031113;28;20899;-69
2023/12/30 12:13:40;;;;;;;5.87;1.90;;;17.90;1.00;;;;;;5033449;28;20466;-69
2023/12/30 12:16:08;;;;;;;3.10;0.80;;;17.90;1.00;;;;;;5027851;28;20998;-69
2023/12/30 12:18:35;;;;;;;3.53;0.93;;;17.90;1.00;;;;;;5030682;28;20522;-69
2023/12/30 12:21:11;;;;;;;3.60;1.30;;;17.90;1.00;;;;;;5032861;28;20466;-69
2023/12/30 12:23:38;;;;;;;4.50;1.10;;;17.90;1.00;;;;;;5038168;28;20453;-69
2023/12/30 12:26:06;;;;;;;5.50;1.67;;;17.90;1.00;;;;;;5033416;28;20458;-69
2023/12/30 12:28:35;;;;;;;3.83;1.10;;;17.90;1.00;;;;;;5032662;28;20485;-69
2023/12/30 12:31:02;;;;;;;3.63;1.00;;;17.90;1.00;;;;;;5028085;28;20486;-69
2023/12/30 12:33:29;;;;;;;3.40;0.97;;;17.80;1.00;;;;;;5028989;28;20944;-69
2023/12/30 12:35:56;;;;;;;4.37;0.90;;;17.80;1.00;;;;;;5033056;28;20942;-69
2023/12/30 12:38:24;;;;;;;3.10;0.73;;;17.90;1.00;;;;;;5034795;28;20487;-68
2023/12/30 12:40:51;;;;;;;3.87;1.43;;;17.90;1.00;;;;;;5028515;28;20514;-68
2023/12/30 12:43:18;;;;;;;3.87;1.10;;;17.80;1.00;;;;;;5030172;28;20464;-68
2023/12/30 12:45:45;;;;;;;4.87;1.00;;;17.70;1.00;;;;;;5032265;28;20469;-68
2023/12/30 12:48:11;;;;;;;3.37;0.90;;;17.60;1.00;;;;;;5030530;28;20478;-68
2023/12/30 12:50:38;;;;;;;3.93;0.93;;;17.60;1.00;;;;;;5034490;28;20483;-68
2023/12/30 12:53:05;;;;;;;5.13;1.23;;;17.50;1.00;;;;;;5031591;28;20466;-68
2023/12/30 12:55:33;;;;;;;3.00;0.87;;;17.40;1.00;;;;;;5031310;28;20552;-68